createdAt,value
2023-02-11T00:00:16.418Z,2.40
2023-02-11T00:01:30.194Z,2.40
2023-02-11T00:02:33.332Z,2.40
2023-02-11T00:03:36.260Z,2.50
2023-02-11T00:04:38.080Z,2.50
2023-02-11T00:05:39.841Z,2.50
2023-02-11T00:06:41.636Z,2.50
2023-02-11T00:07:43.421Z,2.50
2023-02-11T00:08:45.524Z,2.50
2023-02-11T00:09:47.302Z,2.50
2023-02-11T00:10:56.260Z,2.50
2023-02-11T00:11:58.016Z,2.50
2023-02-11T00:12:59.855Z,2.50
2023-02-11T00:14:04.931Z,2.50
2023-02-11T00:15:08.466Z,2.50
2023-02-11T00:16:13.126Z,2.50
2023-02-11T00:17:15.301Z,2.50
2023-02-11T00:18:17.053Z,2.60
2023-02-11T00:19:18.821Z,2.50
2023-02-11T00:20:20.844Z,2.60
2023-02-11T00:21:24.816Z,2.60
2023-02-11T00:22:26.588Z,2.60
2023-02-11T00:23:28.371Z,2.60
2023-02-11T00:24:30.200Z,2.60
2023-02-11T00:25:32.289Z,2.60
2023-02-11T00:26:35.539Z,2.60
2023-02-11T00:27:37.721Z,2.60
2023-02-11T00:28:39.628Z,2.70
2023-02-11T00:29:41.408Z,2.70
2023-02-11T00:30:43.287Z,2.70
2023-02-11T00:31:45.261Z,2.70
2023-02-11T00:32:47.323Z,2.70
2023-02-11T00:33:49.214Z,2.70
2023-02-11T00:34:53.547Z,2.70
2023-02-11T00:35:55.304Z,2.70
2023-02-11T00:36:57.190Z,2.70
2023-02-11T00:37:58.992Z,2.70
2023-02-11T00:39:00.928Z,2.80
2023-02-11T00:40:06.650Z,2.70
2023-02-11T00:41:08.569Z,2.70
2023-02-11T00:42:17.404Z,2.70
2023-02-11T00:43:21.013Z,2.70
2023-02-11T00:44:22.854Z,2.80
2023-02-11T00:45:24.686Z,2.70
2023-02-11T00:46:26.503Z,2.80
2023-02-11T00:47:28.350Z,2.80
2023-02-11T00:48:30.077Z,2.80
2023-02-11T00:49:32.038Z,2.80
2023-02-11T00:50:35.260Z,2.80
2023-02-11T00:51:37.337Z,2.70
2023-02-11T00:52:39.197Z,2.80
2023-02-11T00:53:41.931Z,2.80
2023-02-11T00:54:43.792Z,2.80
2023-02-11T00:55:45.668Z,2.70
2023-02-11T00:56:47.495Z,2.70
2023-02-11T00:57:49.279Z,2.70
2023-02-11T00:58:51.131Z,2.70
2023-02-11T00:59:52.842Z,2.70
2023-02-11T01:00:55.390Z,2.70
2023-02-11T01:01:57.182Z,2.80
2023-02-11T01:02:58.926Z,2.70
2023-02-11T01:04:00.647Z,2.70
2023-02-11T01:05:03.316Z,2.70
2023-02-11T01:06:07.285Z,2.70
2023-02-11T01:07:09.295Z,2.70
2023-02-11T01:08:11.088Z,2.70
2023-02-11T01:09:12.817Z,2.70
2023-02-11T01:10:14.945Z,2.70
2023-02-11T01:11:19.897Z,2.70
2023-02-11T01:12:21.768Z,2.70
2023-02-11T01:13:23.846Z,2.70
2023-02-11T01:14:25.883Z,2.70
2023-02-11T01:15:28.011Z,2.70
2023-02-11T01:16:29.853Z,2.70
2023-02-11T01:17:32.837Z,2.70
2023-02-11T01:18:35.451Z,2.70
2023-02-11T01:19:38.248Z,2.70
2023-02-11T01:20:39.983Z,2.70
2023-02-11T01:21:41.743Z,2.70
2023-02-11T01:22:43.579Z,2.70
2023-02-11T01:23:45.386Z,2.70
2023-02-11T01:24:47.415Z,2.80
2023-02-11T01:25:49.611Z,2.80
2023-02-11T01:26:51.653Z,2.80
2023-02-11T01:27:53.390Z,2.80
2023-02-11T01:28:55.211Z,2.90
2023-02-11T01:29:57.136Z,2.90
2023-02-11T01:31:03.338Z,2.90
2023-02-11T01:32:05.250Z,2.90
2023-02-11T01:33:07.098Z,2.90
2023-02-11T01:34:08.885Z,3.00
2023-02-11T01:35:10.922Z,3.00
2023-02-11T01:36:13.002Z,3.00
2023-02-11T01:37:14.929Z,3.10
2023-02-11T01:38:22.411Z,3.10
2023-02-11T01:39:24.190Z,3.10
2023-02-11T01:40:26.007Z,3.20
2023-02-11T01:41:27.869Z,3.20
2023-02-11T01:42:29.733Z,3.20
2023-02-11T01:43:34.796Z,3.30
2023-02-11T01:44:39.052Z,3.30
2023-02-11T01:45:49.775Z,3.30
2023-02-11T01:46:51.861Z,3.30
2023-02-11T01:47:53.613Z,3.30
2023-02-11T01:49:10.819Z,3.40
2023-02-11T01:50:12.715Z,3.40
2023-02-11T01:51:20.597Z,3.40
2023-02-11T01:52:28.925Z,3.40
2023-02-11T01:53:51.208Z,3.50
2023-02-11T01:55:15.841Z,3.50
2023-02-11T01:56:37.862Z,3.50
2023-02-11T01:57:43.042Z,3.50
2023-02-11T01:58:47.157Z,3.50
2023-02-11T02:00:01.372Z,3.50
2023-02-11T02:01:06.696Z,3.50
2023-02-11T02:02:11.861Z,3.60
2023-02-11T02:03:19.398Z,3.50
2023-02-11T02:04:23.542Z,3.50
2023-02-11T02:06:02.536Z,3.50
2023-02-11T02:07:12.026Z,3.50
2023-02-11T02:08:30.979Z,3.60
2023-02-11T02:09:38.787Z,3.60
2023-02-11T02:10:44.106Z,3.60
2023-02-11T02:11:45.852Z,3.60
2023-02-11T02:12:47.858Z,3.60
2023-02-11T02:13:49.737Z,3.60
2023-02-11T02:14:51.480Z,3.60
2023-02-11T02:15:56.427Z,3.60
2023-02-11T02:16:58.319Z,3.60
2023-02-11T02:18:14.919Z,3.60
2023-02-11T02:19:48.921Z,3.60
2023-02-11T02:21:31.678Z,3.70
2023-02-11T02:22:40.237Z,3.70
2023-02-11T02:24:06.685Z,3.70
2023-02-11T02:25:11.226Z,3.70
2023-02-11T02:26:24.972Z,3.70
2023-02-11T02:27:44.295Z,3.70
2023-02-11T02:29:07.150Z,3.70
2023-02-11T02:30:46.375Z,3.80
2023-02-11T02:32:06.637Z,3.80
2023-02-11T02:33:25.079Z,3.80
2023-02-11T02:34:37.728Z,3.80
2023-02-11T02:35:54.105Z,3.80
2023-02-11T02:37:07.090Z,3.80
2023-02-11T02:38:12.210Z,3.90
2023-02-11T02:39:21.476Z,3.90
2023-02-11T02:40:34.703Z,3.90
2023-02-11T02:41:39.017Z,3.90
2023-02-11T02:42:42.775Z,3.90
2023-02-11T02:43:47.934Z,3.90
2023-02-11T02:44:53.536Z,3.90
2023-02-11T02:45:55.886Z,3.90
2023-02-11T02:46:58.052Z,3.90
2023-02-11T02:47:59.806Z,4.00
2023-02-11T02:49:01.738Z,4.00
2023-02-11T02:50:06.093Z,4.00
2023-02-11T02:51:34.444Z,4.00
2023-02-11T02:52:44.221Z,4.00
2023-02-11T02:53:48.944Z,4.00
2023-02-11T02:55:26.390Z,4.10
2023-02-11T02:56:57.798Z,4.10
2023-02-11T02:58:02.631Z,4.10
2023-02-11T02:59:21.188Z,4.10
2023-02-11T03:01:27.383Z,4.10
2023-02-11T03:02:41.224Z,4.10
2023-02-11T03:04:08.230Z,4.10
2023-02-11T03:05:12.988Z,4.10
2023-02-11T03:06:34.267Z,4.10
2023-02-11T03:07:49.482Z,4.10
2023-02-11T03:09:01.545Z,4.10
2023-02-11T03:10:15.399Z,4.10
2023-02-11T03:11:20.293Z,4.10
2023-02-11T03:12:23.925Z,4.20
2023-02-11T03:13:31.996Z,4.10
2023-02-11T03:14:35.721Z,4.10
2023-02-11T03:15:47.717Z,4.10
2023-02-11T03:16:51.496Z,4.20
2023-02-11T03:17:58.425Z,4.20
2023-02-11T03:19:05.827Z,4.20
2023-02-11T03:20:11.966Z,4.20
2023-02-11T03:21:16.802Z,4.20
2023-02-11T03:22:30.368Z,4.10
2023-02-11T03:23:56.402Z,4.10
2023-02-11T03:24:58.420Z,4.10
2023-02-11T03:26:05.151Z,4.20
2023-02-11T03:27:17.935Z,4.20
2023-02-11T03:28:46.150Z,4.20
2023-02-11T03:30:13.377Z,4.10
2023-02-11T03:31:24.053Z,4.10
2023-02-11T03:32:31.257Z,4.10
2023-02-11T03:34:12.678Z,4.10
2023-02-11T03:35:28.241Z,4.10
2023-02-11T03:36:46.060Z,4.10
2023-02-11T03:38:11.527Z,4.10
2023-02-11T03:39:20.899Z,4.10
2023-02-11T03:40:29.611Z,4.10
2023-02-11T03:41:33.735Z,4.00
2023-02-11T03:42:40.863Z,4.00
2023-02-11T03:43:46.417Z,4.00
2023-02-11T03:45:04.015Z,4.00
2023-02-11T03:46:07.188Z,4.00
2023-02-11T03:47:12.369Z,4.00
2023-02-11T03:48:27.954Z,4.00
2023-02-11T03:49:31.604Z,4.00
2023-02-11T03:50:36.344Z,4.00
2023-02-11T03:51:39.275Z,4.00
2023-02-11T03:52:41.366Z,4.00
2023-02-11T03:53:46.036Z,4.00
2023-02-11T03:54:53.535Z,4.00
2023-02-11T03:55:59.994Z,4.00
2023-02-11T03:57:02.735Z,4.00
2023-02-11T03:58:04.610Z,4.00
2023-02-11T03:59:07.642Z,4.00
2023-02-11T04:00:10.815Z,4.00
2023-02-11T04:01:12.997Z,4.00
2023-02-11T04:02:14.831Z,4.00
2023-02-11T04:03:16.811Z,4.00
2023-02-11T04:04:19.323Z,4.00
2023-02-11T04:05:21.091Z,4.10
2023-02-11T04:06:22.899Z,4.10
2023-02-11T04:07:24.762Z,4.10
2023-02-11T04:08:26.544Z,4.10
2023-02-11T04:09:28.297Z,4.10
2023-02-11T04:10:30.574Z,4.10
2023-02-11T04:11:32.461Z,4.10
2023-02-11T04:12:34.725Z,4.10
2023-02-11T04:13:36.460Z,4.10
2023-02-11T04:14:38.376Z,4.10
2023-02-11T04:15:40.135Z,4.10
2023-02-11T04:16:41.924Z,4.10
2023-02-11T04:17:43.920Z,4.10
2023-02-11T04:18:45.703Z,4.10
2023-02-11T04:19:47.440Z,4.10
2023-02-11T04:20:51.047Z,4.10
2023-02-11T04:21:52.807Z,4.10
2023-02-11T04:22:54.528Z,4.10
2023-02-11T04:23:56.296Z,4.20
2023-02-11T04:24:58.346Z,4.20
2023-02-11T04:26:00.213Z,4.20
2023-02-11T04:27:02.247Z,4.20
2023-02-11T04:28:04.205Z,4.20
2023-02-11T04:29:05.977Z,4.20
2023-02-11T04:30:08.976Z,4.20
2023-02-11T04:31:12.060Z,4.20
2023-02-11T04:32:13.936Z,4.20
2023-02-11T04:33:15.725Z,4.20
2023-02-11T04:34:18.076Z,4.20
2023-02-11T04:35:20.102Z,4.20
2023-02-11T04:36:21.830Z,4.20
2023-02-11T04:37:23.587Z,4.20
2023-02-11T04:38:25.315Z,4.20
2023-02-11T04:39:27.239Z,4.20
2023-02-11T04:40:29.041Z,4.20
2023-02-11T04:41:30.839Z,4.20
2023-02-11T04:42:32.677Z,4.20
2023-02-11T04:43:34.441Z,4.20
2023-02-11T04:44:38.830Z,4.20
2023-02-11T04:45:40.733Z,4.10
2023-02-11T04:46:42.871Z,4.20
2023-02-11T04:47:44.680Z,4.20
2023-02-11T04:48:46.435Z,4.20
2023-02-11T04:49:48.304Z,4.20
2023-02-11T04:50:50.633Z,4.10
2023-02-11T04:51:55.154Z,4.10
2023-02-11T04:52:57.094Z,4.10
2023-02-11T04:53:58.872Z,4.20
2023-02-11T04:55:00.638Z,4.10
2023-02-11T04:56:02.429Z,4.10
2023-02-11T04:57:04.602Z,4.20
2023-02-11T04:58:06.405Z,4.10
2023-02-11T04:59:08.361Z,4.10
2023-02-11T05:00:10.796Z,4.10
2023-02-11T05:01:15.024Z,4.10
2023-02-11T05:02:16.838Z,4.10
2023-02-11T05:03:18.693Z,4.10
2023-02-11T05:04:20.570Z,4.00
2023-02-11T05:05:22.500Z,4.00
2023-02-11T05:06:24.647Z,4.00
2023-02-11T05:07:26.429Z,4.00
2023-02-11T05:08:28.400Z,4.00
2023-02-11T05:09:30.184Z,4.00
2023-02-11T05:10:32.202Z,4.00
2023-02-11T05:11:34.193Z,4.00
2023-02-11T05:12:35.986Z,4.00
2023-02-11T05:13:37.699Z,4.00
2023-02-11T05:14:39.574Z,4.00
2023-02-11T05:15:41.358Z,4.00
2023-02-11T05:16:43.240Z,4.00
2023-02-11T05:17:45.108Z,4.10
2023-02-11T05:18:47.065Z,4.10
2023-02-11T05:19:48.824Z,4.10
2023-02-11T05:20:50.647Z,4.10
2023-02-11T05:22:02.167Z,4.00
2023-02-11T05:23:05.041Z,4.10
2023-02-11T05:24:07.384Z,4.10
2023-02-11T05:25:09.363Z,4.10
2023-02-11T05:26:12.074Z,4.10
2023-02-11T05:27:13.852Z,4.10
2023-02-11T05:28:15.785Z,4.10
2023-02-11T05:29:17.706Z,4.10
2023-02-11T05:30:19.626Z,4.00
2023-02-11T05:31:21.473Z,4.00
2023-02-11T05:32:23.615Z,4.00
2023-02-11T05:33:26.536Z,4.00
2023-02-11T05:34:28.316Z,4.00
2023-02-11T05:35:30.104Z,4.00
2023-02-11T05:36:33.488Z,4.00
2023-02-11T05:37:35.832Z,4.00
2023-02-11T05:38:38.234Z,4.00
2023-02-11T05:39:40.042Z,4.00
2023-02-11T05:40:41.917Z,4.00
2023-02-11T05:41:43.726Z,4.00
2023-02-11T05:42:45.446Z,4.00
2023-02-11T05:43:53.782Z,4.00
2023-02-11T05:44:55.576Z,3.90
2023-02-11T05:45:57.480Z,3.90
2023-02-11T05:46:59.259Z,3.90
2023-02-11T05:48:01.225Z,3.90
2023-02-11T05:49:03.467Z,3.90
2023-02-11T05:50:05.558Z,3.90
2023-02-11T05:51:07.422Z,3.90
2023-02-11T05:52:09.205Z,3.90
2023-02-11T05:53:11.588Z,3.90
2023-02-11T05:54:13.649Z,3.90
2023-02-11T05:55:15.447Z,3.90
2023-02-11T05:56:17.378Z,3.90
2023-02-11T05:57:20.463Z,3.90
2023-02-11T05:58:22.361Z,3.90
2023-02-11T05:59:24.153Z,3.90
2023-02-11T06:00:26.370Z,3.90
2023-02-11T06:01:28.346Z,3.90
2023-02-11T06:02:30.210Z,3.90
2023-02-11T06:03:32.251Z,3.90
2023-02-11T06:04:35.029Z,3.90
2023-02-11T06:05:36.835Z,3.90
2023-02-11T06:06:38.750Z,3.90
2023-02-11T06:07:40.533Z,3.90
2023-02-11T06:08:43.059Z,3.90
2023-02-11T06:09:44.867Z,3.90
2023-02-11T06:10:46.722Z,3.90
2023-02-11T06:11:48.582Z,3.90
2023-02-11T06:12:50.380Z,3.90
2023-02-11T06:13:52.192Z,3.90
2023-02-11T06:14:59.293Z,3.90
2023-02-11T06:16:02.486Z,3.90
2023-02-11T06:17:04.432Z,3.90
2023-02-11T06:18:07.476Z,3.90
2023-02-11T06:19:09.280Z,3.80
2023-02-11T06:20:11.659Z,3.90
2023-02-11T06:21:16.344Z,3.90
2023-02-11T06:22:18.165Z,3.90
2023-02-11T06:23:20.391Z,3.90
2023-02-11T06:24:47.642Z,3.90
2023-02-11T06:25:43.940Z,3.90
2023-02-11T06:26:45.713Z,3.90
2023-02-11T06:27:47.511Z,4.00
2023-02-11T06:28:49.767Z,4.00
2023-02-11T06:29:52.842Z,4.00
2023-02-11T06:30:54.627Z,4.00
2023-02-11T06:31:56.627Z,4.00
2023-02-11T06:32:58.674Z,4.00
2023-02-11T06:34:01.227Z,4.00
2023-02-11T06:35:02.983Z,4.00
2023-02-11T06:36:05.790Z,4.00
2023-02-11T06:37:07.539Z,4.10
2023-02-11T06:38:09.296Z,4.10
2023-02-11T06:39:12.851Z,4.10
2023-02-11T06:40:14.678Z,4.10
2023-02-11T06:41:20.118Z,4.10
2023-02-11T06:42:21.897Z,4.10
2023-02-11T06:43:23.722Z,4.10
2023-02-11T06:44:25.538Z,4.10
2023-02-11T06:45:27.251Z,4.10
2023-02-11T06:46:29.066Z,4.10
2023-02-11T06:47:30.811Z,4.10
2023-02-11T06:48:33.019Z,4.10
2023-02-11T06:49:34.740Z,4.10
2023-02-11T06:50:36.561Z,4.10
2023-02-11T06:51:38.319Z,4.10
2023-02-11T06:52:40.209Z,4.10
2023-02-11T06:53:45.204Z,4.10
2023-02-11T06:54:46.962Z,4.10
2023-02-11T06:55:49.045Z,4.10
2023-02-11T06:56:50.934Z,4.10
2023-02-11T06:57:52.854Z,4.20
2023-02-11T06:58:55.498Z,4.10
2023-02-11T06:59:57.277Z,4.10
2023-02-11T07:00:59.781Z,4.10
2023-02-11T07:02:01.661Z,4.10
2023-02-11T07:03:03.617Z,4.10
2023-02-11T07:04:05.503Z,4.10
2023-02-11T07:05:07.769Z,4.10
2023-02-11T07:06:13.534Z,4.10
2023-02-11T07:07:15.757Z,4.10
2023-02-11T07:08:17.618Z,4.10
2023-02-11T07:09:19.380Z,4.10
2023-02-11T07:10:21.205Z,4.10
2023-02-11T07:11:25.764Z,4.00
2023-02-11T07:12:27.482Z,4.00
2023-02-11T07:13:29.260Z,4.00
2023-02-11T07:14:31.080Z,4.00
2023-02-11T07:15:33.205Z,4.00
2023-02-11T07:16:35.577Z,4.00
2023-02-11T07:17:37.547Z,4.00
2023-02-11T07:18:39.612Z,4.00
2023-02-11T07:19:41.448Z,4.00
2023-02-11T07:20:43.293Z,3.90
2023-02-11T07:21:45.082Z,3.90
2023-02-11T07:22:46.980Z,3.90
2023-02-11T07:23:49.102Z,3.90
2023-02-11T07:24:50.919Z,3.90
2023-02-11T07:25:52.820Z,3.90
2023-02-11T07:26:54.739Z,3.90
2023-02-11T07:27:56.684Z,3.90
2023-02-11T07:28:58.574Z,3.90
2023-02-11T07:30:07.534Z,3.90
2023-02-11T07:31:16.601Z,3.80
2023-02-11T07:32:18.501Z,3.80
2023-02-11T07:33:20.286Z,3.90
2023-02-11T07:34:22.088Z,3.80
2023-02-11T07:35:23.888Z,3.90
2023-02-11T07:36:26.409Z,3.80
2023-02-11T07:37:28.523Z,3.80
2023-02-11T07:38:31.309Z,3.80
2023-02-11T07:39:33.176Z,3.90
2023-02-11T07:40:34.930Z,3.90
2023-02-11T07:41:38.006Z,3.80
2023-02-11T07:42:41.608Z,3.80
2023-02-11T07:43:44.234Z,3.80
2023-02-11T07:44:49.983Z,3.80
2023-02-11T07:45:52.428Z,3.80
2023-02-11T07:46:54.584Z,3.80
2023-02-11T07:47:56.481Z,3.80
2023-02-11T07:48:58.311Z,3.80
2023-02-11T07:50:00.138Z,3.80
2023-02-11T07:51:12.535Z,3.90
2023-02-11T07:52:14.388Z,3.90
2023-02-11T07:53:16.595Z,3.90
2023-02-11T07:54:18.686Z,3.90
2023-02-11T07:55:20.432Z,3.90
2023-02-11T07:56:23.291Z,3.90
2023-02-11T07:57:28.202Z,3.90
2023-02-11T07:58:30.188Z,4.00
2023-02-11T07:59:32.032Z,4.00
2023-02-11T08:00:33.818Z,4.00
2023-02-11T08:01:35.588Z,4.00
2023-02-11T08:02:37.406Z,4.00
2023-02-11T08:03:41.964Z,4.00
2023-02-11T08:04:46.267Z,4.00
2023-02-11T08:05:48.077Z,4.00
2023-02-11T08:06:52.681Z,4.00
2023-02-11T08:07:54.953Z,4.10
2023-02-11T08:08:56.868Z,4.10
2023-02-11T08:09:58.638Z,4.10
2023-02-11T08:11:13.306Z,4.10
2023-02-11T08:12:15.073Z,4.10
2023-02-11T08:13:16.858Z,4.10
2023-02-11T08:14:18.709Z,4.10
2023-02-11T08:15:20.480Z,4.10
2023-02-11T08:16:24.047Z,4.20
2023-02-11T08:17:25.940Z,4.20
2023-02-11T08:18:27.741Z,4.20
2023-02-11T08:19:29.562Z,4.20
2023-02-11T08:20:31.435Z,4.30
2023-02-11T08:21:33.458Z,4.30
2023-02-11T08:22:35.879Z,4.30
2023-02-11T08:23:39.097Z,4.30
2023-02-11T08:24:40.954Z,4.30
2023-02-11T08:25:43.565Z,4.40
2023-02-11T08:26:45.512Z,4.40
2023-02-11T08:27:47.354Z,4.40
2023-02-11T08:28:50.993Z,4.40
2023-02-11T08:29:53.915Z,4.40
2023-02-11T08:30:55.691Z,4.50
2023-02-11T08:31:57.572Z,4.40
2023-02-11T08:32:59.436Z,4.50
2023-02-11T08:34:02.431Z,4.50
2023-02-11T08:35:04.630Z,4.50
2023-02-11T08:36:21.009Z,4.50
2023-02-11T08:37:22.871Z,4.50
2023-02-11T08:38:24.663Z,4.40
2023-02-11T08:39:26.425Z,4.40
2023-02-11T08:40:28.328Z,4.40
2023-02-11T08:41:30.139Z,4.40
2023-02-11T08:42:50.482Z,4.50
2023-02-11T08:43:52.317Z,4.50
2023-02-11T08:45:46.340Z,4.50
2023-02-11T08:46:48.980Z,4.50
2023-02-11T08:47:51.072Z,4.50
2023-02-11T08:48:53.057Z,4.60
2023-02-11T08:49:54.838Z,4.60
2023-02-11T08:50:57.528Z,4.60
2023-02-11T08:52:03.894Z,4.60
2023-02-11T08:53:05.705Z,4.60
2023-02-11T08:54:09.803Z,4.60
2023-02-11T08:55:11.789Z,4.60
2023-02-11T08:56:15.220Z,4.60
2023-02-11T08:57:16.948Z,4.60
2023-02-11T08:58:19.338Z,4.70
2023-02-11T08:59:21.143Z,4.70
2023-02-11T09:00:23.416Z,4.70
2023-02-11T09:01:28.158Z,4.70
2023-02-11T09:02:49.810Z,4.70
2023-02-11T09:03:51.981Z,4.70
2023-02-11T09:04:53.753Z,4.70
2023-02-11T09:05:56.963Z,4.70
2023-02-11T09:06:58.838Z,4.70
2023-02-11T09:08:00.605Z,4.70
2023-02-11T09:09:02.463Z,4.70
2023-02-11T09:10:05.297Z,4.70
2023-02-11T09:11:07.388Z,4.70
2023-02-11T09:12:09.159Z,4.70
2023-02-11T09:13:11.288Z,4.70
2023-02-11T09:14:22.189Z,4.80
2023-02-11T09:15:23.941Z,4.70
2023-02-11T09:16:29.674Z,4.80
2023-02-11T09:17:31.481Z,4.80
2023-02-11T09:18:33.849Z,4.80
2023-02-11T09:19:35.924Z,4.80
2023-02-11T09:20:37.670Z,4.80
2023-02-11T09:21:39.457Z,4.80
2023-02-11T09:22:41.188Z,4.80
2023-02-11T09:23:44.982Z,4.80
2023-02-11T09:24:47.284Z,4.80
2023-02-11T09:25:49.249Z,4.80
2023-02-11T09:26:51.080Z,4.80
2023-02-11T09:27:53.800Z,4.80
2023-02-11T09:28:55.743Z,4.80
2023-02-11T09:32:34.245Z,4.80
2023-02-11T09:33:36.923Z,4.70
2023-02-11T09:34:38.731Z,4.70
2023-02-11T09:35:40.467Z,4.70
2023-02-11T09:36:42.305Z,4.70
2023-02-11T09:37:44.127Z,4.70
2023-02-11T09:38:49.588Z,4.70
2023-02-11T09:39:51.470Z,4.70
2023-02-11T09:41:01.883Z,4.80
2023-02-11T09:42:37.625Z,4.80
2023-02-11T09:43:46.549Z,4.80
2023-02-11T09:44:48.918Z,4.80
2023-02-11T09:45:53.966Z,4.80
2023-02-11T09:47:01.990Z,4.80
2023-02-11T09:48:16.525Z,4.80
2023-02-11T09:49:24.738Z,4.80
2023-02-11T09:50:39.786Z,4.80
2023-02-11T09:51:48.297Z,4.80
2023-02-11T09:53:05.232Z,4.80
2023-02-11T09:54:48.102Z,4.80
2023-02-11T09:55:57.050Z,4.80
2023-02-11T09:57:28.272Z,4.90
2023-02-11T09:58:39.610Z,4.90
2023-02-11T09:59:41.469Z,4.90
2023-02-11T10:01:09.565Z,4.90
2023-02-11T10:02:40.144Z,4.90
2023-02-11T10:03:52.552Z,4.90
2023-02-11T10:05:22.515Z,4.90
2023-02-11T10:06:42.066Z,4.90
2023-02-11T10:07:57.369Z,4.90
2023-02-11T10:09:30.013Z,4.90
2023-02-11T10:10:40.351Z,5.00
2023-02-11T10:12:04.224Z,5.00
2023-02-11T10:13:35.612Z,5.00
2023-02-11T10:14:49.543Z,5.00
2023-02-11T10:16:02.872Z,5.10
2023-02-11T10:17:25.594Z,5.10
2023-02-11T10:18:42.572Z,5.10
2023-02-11T10:20:03.147Z,5.20
2023-02-11T10:21:07.898Z,5.20
2023-02-11T10:22:42.486Z,5.20
2023-02-11T10:23:51.730Z,5.20
2023-02-11T10:24:58.456Z,5.20
2023-02-11T10:26:00.726Z,5.20
2023-02-11T10:27:17.757Z,5.20
2023-02-11T10:28:27.349Z,5.20
2023-02-11T10:29:59.171Z,5.30
2023-02-11T10:31:09.649Z,5.30
2023-02-11T10:32:49.797Z,5.40
2023-02-11T10:34:10.655Z,5.40
2023-02-11T10:35:23.682Z,5.50
2023-02-11T10:36:31.105Z,5.50
2023-02-11T10:37:32.900Z,5.50
2023-02-11T10:38:36.432Z,5.60
2023-02-11T10:39:40.086Z,5.60
2023-02-11T10:40:42.120Z,5.60
2023-02-11T10:42:05.436Z,5.60
2023-02-11T10:43:13.773Z,5.70
2023-02-11T10:44:27.612Z,5.70
2023-02-11T10:45:54.299Z,5.60
2023-02-11T10:46:57.453Z,5.60
2023-02-11T10:48:01.118Z,5.60
2023-02-11T10:49:03.923Z,5.60
2023-02-11T10:50:22.884Z,5.60
2023-02-11T10:51:27.337Z,5.60
2023-02-11T10:52:30.758Z,5.60
2023-02-11T10:53:33.911Z,5.60
2023-02-11T10:54:35.672Z,5.60
2023-02-11T10:55:37.734Z,5.70
2023-02-11T10:56:46.371Z,5.70
2023-02-11T10:57:55.468Z,5.70
2023-02-11T10:59:14.415Z,5.70
2023-02-11T11:00:36.671Z,5.70
2023-02-11T11:01:51.424Z,5.70
2023-02-11T11:02:57.333Z,5.70
2023-02-11T11:03:59.956Z,5.70
2023-02-11T11:05:16.300Z,5.70
2023-02-11T11:06:32.177Z,5.70
2023-02-11T11:07:35.221Z,5.70
2023-02-11T11:08:50.814Z,5.70
2023-02-11T11:10:07.443Z,5.70
2023-02-11T11:11:15.466Z,5.70
2023-02-11T11:12:41.853Z,5.80
2023-02-11T11:13:58.179Z,5.80
2023-02-11T11:15:18.401Z,5.80
2023-02-11T11:16:23.922Z,5.80
2023-02-11T11:17:29.280Z,5.80
2023-02-11T11:18:31.080Z,5.80
2023-02-11T11:19:33.180Z,5.80
2023-02-11T11:20:36.385Z,5.80
2023-02-11T11:21:47.605Z,5.80
2023-02-11T11:22:52.666Z,5.80
2023-02-11T11:24:03.764Z,5.80
2023-02-11T11:25:06.036Z,5.80
2023-02-11T11:26:11.205Z,5.80
2023-02-11T11:32:00.768Z,5.80
2023-02-11T11:33:02.846Z,5.80
2023-02-11T11:38:14.975Z,5.80
2023-02-11T11:39:24.896Z,5.80
2023-02-11T11:40:32.318Z,5.80
2023-02-11T11:41:35.144Z,5.80
2023-02-11T11:42:38.942Z,5.80
2023-02-11T11:43:58.510Z,5.80
2023-02-11T11:45:19.574Z,5.80
2023-02-11T11:46:43.392Z,5.80
2023-02-11T11:48:08.322Z,5.80
2023-02-11T11:49:33.478Z,5.80
2023-02-11T11:50:55.077Z,5.80
2023-02-11T11:52:22.724Z,5.80
2023-02-11T11:53:50.930Z,5.80
2023-02-11T11:55:00.366Z,5.80
2023-02-11T11:56:15.594Z,5.80
2023-02-11T11:57:22.288Z,5.80
2023-02-11T11:58:24.183Z,5.80
2023-02-11T11:59:26.990Z,5.80
2023-02-11T12:00:37.728Z,5.80
2023-02-11T12:01:56.234Z,5.80
2023-02-11T12:03:36.560Z,5.90
2023-02-11T12:04:59.606Z,5.80
2023-02-11T12:06:35.044Z,5.80
2023-02-11T12:08:08.416Z,5.80
2023-02-11T12:09:21.576Z,5.80
2023-02-11T12:10:30.097Z,5.80
2023-02-11T12:11:34.568Z,5.80
2023-02-11T12:12:39.154Z,5.80
2023-02-11T12:14:09.083Z,5.80
2023-02-11T12:15:55.311Z,5.80
2023-02-11T12:16:57.068Z,5.80
2023-02-11T12:18:11.974Z,5.80
2023-02-11T12:19:44.568Z,5.80
2023-02-11T12:21:09.595Z,5.80
2023-02-11T12:22:12.727Z,5.80
2023-02-11T12:23:36.059Z,5.80
2023-02-11T12:24:52.914Z,5.80
2023-02-11T12:26:07.321Z,5.80
2023-02-11T12:27:20.598Z,5.80
2023-02-11T12:28:42.620Z,5.80
2023-02-11T12:29:44.309Z,5.80
2023-02-11T12:30:58.263Z,5.80
2023-02-11T12:32:31.993Z,5.80
2023-02-11T12:33:58.267Z,5.80
2023-02-11T12:35:18.421Z,5.80
2023-02-11T12:36:42.122Z,5.80
2023-02-11T12:37:47.468Z,5.80
2023-02-11T12:38:57.242Z,5.80
2023-02-11T12:40:10.809Z,5.80
2023-02-11T12:41:46.500Z,5.80
2023-02-11T12:43:29.890Z,5.80
2023-02-11T12:44:43.368Z,5.80
2023-02-11T12:46:16.341Z,5.70
2023-02-11T12:47:38.188Z,5.80
2023-02-11T12:49:01.574Z,5.70
2023-02-11T12:50:30.692Z,5.70
2023-02-11T12:51:51.010Z,5.70
2023-02-11T12:53:04.753Z,5.70
2023-02-11T12:54:25.705Z,5.70
2023-02-11T12:55:33.229Z,5.80
2023-02-11T12:56:46.690Z,5.80
2023-02-11T12:57:50.750Z,5.80
2023-02-11T12:58:56.830Z,5.80
2023-02-11T13:00:18.450Z,5.80
2023-02-11T13:01:43.799Z,5.80
2023-02-11T13:03:22.621Z,5.90
2023-02-11T13:05:21.610Z,5.90
2023-02-11T13:06:33.403Z,5.80
2023-02-11T13:07:44.914Z,5.80
2023-02-11T13:09:48.348Z,5.80
2023-02-11T13:11:04.172Z,5.80
2023-02-11T13:12:25.420Z,5.80
2023-02-11T13:13:37.204Z,5.80
2023-02-11T13:14:41.109Z,5.80
2023-02-11T13:16:14.782Z,5.90
2023-02-11T13:17:25.698Z,5.90
2023-02-11T13:18:51.794Z,5.90
2023-02-11T13:20:18.165Z,5.90
2023-02-11T13:21:33.517Z,5.90
2023-02-11T13:22:44.076Z,5.90
2023-02-11T13:24:14.273Z,5.90
2023-02-11T13:25:39.273Z,5.90
2023-02-11T13:26:51.349Z,5.90
2023-02-11T13:28:36.716Z,5.90
2023-02-11T13:30:03.048Z,6.00
2023-02-11T13:31:09.368Z,6.00
2023-02-11T13:32:13.832Z,6.00
2023-02-11T13:33:15.634Z,6.00
2023-02-11T13:34:46.638Z,6.00
2023-02-11T13:35:51.166Z,6.00
2023-02-11T13:36:57.331Z,6.00
2023-02-11T13:38:21.750Z,6.00
2023-02-11T13:39:23.573Z,6.00
2023-02-11T13:40:33.565Z,6.10
2023-02-11T13:41:38.482Z,6.10
2023-02-11T13:42:56.205Z,6.10
2023-02-11T13:44:23.587Z,6.10
2023-02-11T13:45:37.216Z,6.10
2023-02-11T13:47:01.338Z,6.10
2023-02-11T13:48:06.746Z,6.10
2023-02-11T13:49:19.948Z,6.10
2023-02-11T13:50:25.042Z,6.10
2023-02-11T13:51:39.001Z,6.10
2023-02-11T13:52:42.704Z,6.10
2023-02-11T13:53:51.726Z,6.10
2023-02-11T13:54:56.851Z,6.10
2023-02-11T13:56:11.949Z,6.10
2023-02-11T13:57:19.814Z,6.10
2023-02-11T13:58:27.393Z,6.10
2023-02-11T13:59:30.575Z,6.10
2023-02-11T14:00:35.412Z,6.10
2023-02-11T14:02:07.779Z,6.10
2023-02-11T14:03:31.008Z,6.10
2023-02-11T14:04:52.031Z,6.20
2023-02-11T14:06:27.595Z,6.20
2023-02-11T14:07:51.423Z,6.10
2023-02-11T14:09:07.050Z,6.20
2023-02-11T14:10:50.118Z,6.20
2023-02-11T14:12:22.685Z,6.10
2023-02-11T14:13:54.838Z,6.10
2023-02-11T14:15:20.113Z,6.10
2023-02-11T14:16:36.730Z,6.10
2023-02-11T14:17:38.999Z,6.10
2023-02-11T14:18:52.634Z,6.10
2023-02-11T14:19:54.646Z,6.00
2023-02-11T14:21:25.787Z,6.00
2023-02-11T14:22:47.747Z,6.00
2023-02-11T14:23:53.315Z,6.00
2023-02-11T14:24:57.356Z,6.00
2023-02-11T14:26:18.916Z,6.00
2023-02-11T14:27:31.708Z,6.00
2023-02-11T14:28:35.252Z,6.00
2023-02-11T14:29:50.984Z,6.00
2023-02-11T14:31:18.364Z,6.00
2023-02-11T14:32:49.115Z,6.00
2023-02-11T14:33:53.968Z,6.00
2023-02-11T14:35:18.616Z,6.00
2023-02-11T14:36:46.188Z,6.00
2023-02-11T14:38:22.582Z,6.00
2023-02-11T14:39:45.578Z,6.00
2023-02-11T14:40:56.555Z,6.00
2023-02-11T14:42:02.570Z,6.00
2023-02-11T14:43:16.491Z,6.00
2023-02-11T14:44:25.086Z,6.00
2023-02-11T14:45:28.803Z,6.00
2023-02-11T14:46:32.914Z,6.10
2023-02-11T14:47:53.032Z,6.00
2023-02-11T14:48:59.618Z,6.10
2023-02-11T14:50:01.670Z,6.10
2023-02-11T14:51:08.399Z,6.10
2023-02-11T14:52:22.856Z,6.00
2023-02-11T14:53:26.391Z,6.10
2023-02-11T14:54:29.068Z,6.10
2023-02-11T14:55:37.556Z,6.00
2023-02-11T14:56:39.755Z,6.10
2023-02-11T14:57:44.507Z,6.00
2023-02-11T14:58:51.919Z,6.00
2023-02-11T15:00:02.213Z,6.10
2023-02-11T15:01:20.690Z,6.10
2023-02-11T15:02:33.038Z,6.10
2023-02-11T15:03:43.004Z,6.10
2023-02-11T15:04:45.052Z,6.10
2023-02-11T15:05:46.787Z,6.10
2023-02-11T15:06:52.133Z,6.10
2023-02-11T15:08:00.444Z,6.10
2023-02-11T15:09:05.053Z,6.10
2023-02-11T15:10:07.957Z,6.10
2023-02-11T15:11:13.560Z,6.10
2023-02-11T15:12:23.780Z,6.10
2023-02-11T15:13:31.065Z,6.10
2023-02-11T15:14:35.698Z,6.10
2023-02-11T15:15:40.862Z,6.10
2023-02-11T15:16:47.408Z,6.10
2023-02-11T15:17:49.276Z,6.20